Time;durP1;ratioP1;P1;durP2;ratioP2;P2;SDS_P1;SDS_P2;PMS_P1;PMS_P2;Temp;Humidity;BMP_temperature;BMP_pressure;BME280_temperature;BME280_humidity;BME280_pressure;Samples;Min_cycle;Max_cycle;Signal;HPM_P1;HPM_P2
2022/09/27 00:01:16;;;;;;;4.75;0.95;;;;;;;;;;4965040;28;20046;-95
2022/09/27 00:03:42;;;;;;;4.88;0.80;;;;;;;;;;4981204;28;20104;-96
2022/09/27 00:06:10;;;;;;;3.25;0.50;;;;;;;;;;4982601;28;20045;-93
2022/09/27 00:08:36;;;;;;;10.10;0.90;;;;;;;;;;4983039;28;20485;-93
2022/09/27 00:11:21;;;;;;;4.72;0.93;;;;;;;;;;4975038;28;20057;-94
2022/09/27 00:13:47;;;;;;;3.85;1.23;;;;;;;;;;4983916;28;20040;-94
2022/09/27 00:16:13;;;;;;;5.43;0.85;;;;;;;;;;4967743;28;20479;-95
2022/09/27 00:18:39;;;;;;;12.43;1.00;;;;;;;;;;4987258;28;20065;-95
2022/09/27 00:21:07;;;;;;;8.10;0.90;;;;;;;;;;4985733;28;20037;-94
2022/09/27 00:23:34;;;;;;;2.35;0.55;;;;;;;;;;4994569;28;20083;-95
2022/09/27 00:26:00;;;;;;;1.42;0.50;;;;;;;;;;4995809;28;20097;-95
2022/09/27 00:28:26;;;;;;;7.93;1.10;;;;;;;;;;4995357;28;20030;-94
2022/09/27 00:30:53;;;;;;;4.00;0.80;;;;;;;;;;5002143;28;20038;-93
2022/09/27 00:33:19;;;;;;;9.50;0.85;;;;;;;;;;5001359;28;20081;-93
2022/09/27 00:35:48;;;;;;;6.45;0.90;;;;;;;;;;5007155;28;20114;-93
2022/09/27 00:38:16;;;;;;;8.48;1.33;;;;;;;;;;5016419;28;20080;-94
2022/09/27 00:40:42;;;;;;;6.97;1.25;;;;;;;;;;5017497;28;20125;-94
2022/09/27 00:43:22;;;;;;;6.85;1.70;;;;;;;;;;5025019;28;20062;-93
2022/09/27 00:45:54;;;;;;;9.77;1.00;;;;;;;;;;5017269;28;20037;-93
2022/09/27 00:48:22;;;;;;;11.70;0.95;;;;;;;;;;5026359;28;20038;-92
2022/09/27 00:50:50;;;;;;;9.43;1.38;;;;;;;;;;5030883;28;20041;-93
2022/09/27 00:53:31;;;;;;;12.57;1.10;;;;;;;;;;5050367;28;20047;-94
2022/09/27 00:55:59;;;;;;;4.40;1.50;;;;;;;;;;5068417;23;20046;-96
2022/09/27 00:58:28;;;;;;;8.63;1.00;;;;;;;;;;4996491;28;20044;-95
2022/09/27 01:00:57;;;;;;;8.55;0.85;;;;;;;;;;5000356;28;20480;-96
2022/09/27 01:03:31;;;;;;;11.60;1.08;;;;;;;;;;5005014;28;20469;-92
2022/09/27 01:05:59;;;;;;;5.80;0.88;;;;;;;;;;4996088;28;20026;-94
2022/09/27 01:08:25;;;;;;;5.78;1.08;;;;;;;;;;4999287;28;20025;-92
2022/09/27 01:11:23;;;;;;;6.13;1.13;;;;;;;;;;4986797;28;20053;-93
2022/09/27 01:13:49;;;;;;;6.55;0.82;;;;;;;;;;4971370;28;20033;-93
2022/09/27 01:16:16;;;;;;;6.47;0.98;;;;;;;;;;5004410;28;20527;-92
2022/09/27 01:18:52;;;;;;;15.68;1.10;;;;;;;;;;4996784;28;20037;-93
2022/09/27 01:21:37;;;;;;;13.07;1.48;;;;;;;;;;4998917;28;20127;-94
2022/09/27 01:24:19;;;;;;;7.32;1.33;;;;;;;;;;4998243;28;20042;-94
2022/09/27 01:27:04;;;;;;;7.72;1.15;;;;;;;;;;5006196;28;20032;-94
2022/09/27 01:29:56;;;;;;;16.05;1.55;;;;;;;;;;5007924;28;20037;-94
2022/09/27 01:32:28;;;;;;;8.45;1.20;;;;;;;;;;4970332;28;20429;-95
2022/09/27 01:35:14;;;;;;;2.67;1.10;;;;;;;;;;5003702;28;20029;-93
2022/09/27 01:37:59;;;;;;;10.00;0.83;;;;;;;;;;5006743;28;20025;-94
2022/09/27 01:40:43;;;;;;;5.50;0.90;;;;;;;;;;5004451;28;20033;-93
2022/09/27 01:43:17;;;;;;;5.40;0.85;;;;;;;;;;5003511;28;20024;-93
2022/09/27 01:46:01;;;;;;;7.85;1.00;;;;;;;;;;4998362;28;20036;-94
2022/09/27 01:48:33;;;;;;;11.55;1.42;;;;;;;;;;4999925;28;20673;-94
2022/09/27 01:51:05;;;;;;;11.88;1.27;;;;;;;;;;5004229;28;20036;-94
2022/09/27 01:53:31;;;;;;;15.48;1.20;;;;;;;;;;4996280;28;20037;-94
2022/09/27 01:56:02;;;;;;;5.68;0.80;;;;;;;;;;5006490;28;20041;-94
2022/09/27 01:58:42;;;;;;;8.07;0.70;;;;;;;;;;5000974;28;20040;-93
2022/09/27 02:01:09;;;;;;;7.88;1.25;;;;;;;;;;5003403;28;20034;-94
2022/09/27 02:03:36;;;;;;;4.80;1.30;;;;;;;;;;5000160;28;20069;-92
2022/09/27 02:06:05;;;;;;;10.07;1.15;;;;;;;;;;5000987;28;20125;-95
2022/09/27 02:08:36;;;;;;;7.60;0.88;;;;;;;;;;5000491;28;20443;-94
2022/09/27 02:11:03;;;;;;;7.55;0.73;;;;;;;;;;5002602;28;20030;-94
2022/09/27 02:13:29;;;;;;;3.47;0.28;;;;;;;;;;5004616;28;20497;-94
2022/09/27 02:16:08;;;;;;;2.38;0.25;;;;;;;;;;4997504;28;20057;-94
2022/09/27 02:18:40;;;;;;;4.28;0.73;;;;;;;;;;4999560;28;20026;-95
2022/09/27 02:21:15;;;;;;;5.00;0.60;;;;;;;;;;5002798;28;20444;-94
2022/09/27 02:24:02;;;;;;;5.40;0.75;;;;;;;;;;4997846;28;20053;-94
2022/09/27 02:26:41;;;;;;;2.15;0.70;;;;;;;;;;5006208;28;20103;-94
2022/09/27 02:29:18;;;;;;;2.90;0.55;;;;;;;;;;5005874;28;20035;-96
2022/09/27 02:31:44;;;;;;;4.63;1.00;;;;;;;;;;5005625;28;20061;-96
2022/09/27 02:34:12;;;;;;;6.00;0.82;;;;;;;;;;4983049;28;20037;-95
2022/09/27 02:36:38;;;;;;;3.58;0.50;;;;;;;;;;4997821;28;20022;-95
2022/09/27 02:39:05;;;;;;;3.83;0.63;;;;;;;;;;4984595;28;20548;-95
2022/09/27 02:41:31;;;;;;;2.22;0.43;;;;;;;;;;5002471;28;20045;-93
2022/09/27 02:44:03;;;;;;;8.32;0.95;;;;;;;;;;4995973;28;20029;-96
2022/09/27 02:46:35;;;;;;;4.47;0.60;;;;;;;;;;4996008;28;20065;-93
2022/09/27 02:49:09;;;;;;;4.57;0.52;;;;;;;;;;5001747;28;20517;-94
2022/09/27 02:51:38;;;;;;;12.60;0.77;;;;;;;;;;5004056;28;20045;-95
2022/09/27 02:54:09;;;;;;;3.83;0.45;;;;;;;;;;5005308;28;20033;-94
2022/09/27 02:57:01;;;;;;;3.95;0.40;;;;;;;;;;4993875;28;20633;-94
2022/09/27 02:59:45;;;;;;;2.05;0.43;;;;;;;;;;4999948;28;21096;-94
2022/09/27 03:02:30;;;;;;;2.35;0.50;;;;;;;;;;4998758;28;20033;-93
2022/09/27 03:04:59;;;;;;;4.15;1.08;;;;;;;;;;5004454;28;20624;-95
2022/09/27 03:07:25;;;;;;;9.40;0.73;;;;;;;;;;4998869;28;20042;-95
2022/09/27 03:09:52;;;;;;;8.80;1.40;;;;;;;;;;4997298;28;20089;-94
2022/09/27 03:12:24;;;;;;;9.13;0.63;;;;;;;;;;4983793;28;20063;-94
2022/09/27 03:14:50;;;;;;;5.32;0.80;;;;;;;;;;4984537;28;20085;-93
2022/09/27 03:17:16;;;;;;;3.10;0.90;;;;;;;;;;4982464;28;20042;-94
2022/09/27 03:19:42;;;;;;;9.25;0.90;;;;;;;;;;4982215;28;20089;-94
2022/09/27 03:22:08;;;;;;;0.60;0.35;;;;;;;;;;4980334;28;20029;-93
2022/09/27 03:24:34;;;;;;;4.35;0.70;;;;;;;;;;4986431;28;20124;-93
2022/09/27 03:27:01;;;;;;;5.13;1.00;;;;;;;;;;4989072;28;20684;-92
2022/09/27 03:29:34;;;;;;;8.52;0.73;;;;;;;;;;4981819;28;20033;-93
2022/09/27 03:32:00;;;;;;;3.33;0.50;;;;;;;;;;5000143;28;20040;-92
2022/09/27 03:34:26;;;;;;;8.38;0.68;;;;;;;;;;4986669;28;20117;-93
2022/09/27 03:36:52;;;;;;;4.45;0.90;;;;;;;;;;5001997;28;20085;-93
2022/09/27 03:39:18;;;;;;;4.05;0.77;;;;;;;;;;4987129;28;20037;-94
2022/09/27 03:41:44;;;;;;;11.15;1.05;;;;;;;;;;4985635;28;20820;-94
2022/09/27 03:44:10;;;;;;;6.53;0.77;;;;;;;;;;4988336;28;20026;-94
2022/09/27 03:46:36;;;;;;;6.80;1.17;;;;;;;;;;4986663;28;20069;-92
2022/09/27 03:49:02;;;;;;;8.82;1.05;;;;;;;;;;4983424;28;20032;-93
2022/09/27 03:51:28;;;;;;;4.13;1.10;;;;;;;;;;4987744;28;20042;-94
2022/09/27 03:53:54;;;;;;;2.78;0.65;;;;;;;;;;4986941;28;20456;-93
2022/09/27 03:56:20;;;;;;;5.13;0.40;;;;;;;;;;4995503;28;20089;-95
2022/09/27 03:58:47;;;;;;;5.43;1.88;;;;;;;;;;4989512;28;20132;-93
2022/09/27 04:01:13;;;;;;;8.32;1.27;;;;;;;;;;5003753;28;20556;-95
2022/09/27 04:03:39;;;;;;;11.38;1.13;;;;;;;;;;4988584;28;20053;-94
2022/09/27 04:06:05;;;;;;;6.35;0.98;;;;;;;;;;4981748;28;20080;-93
2022/09/27 04:08:31;;;;;;;9.82;0.60;;;;;;;;;;4988684;28;20676;-94
2022/09/27 04:10:57;;;;;;;5.00;0.90;;;;;;;;;;5005167;28;20375;-92
2022/09/27 04:13:23;;;;;;;13.50;0.75;;;;;;;;;;4993974;28;20049;-93
2022/09/27 04:15:49;;;;;;;12.35;1.50;;;;;;;;;;4983290;28;20041;-92
2022/09/27 04:18:15;;;;;;;1.33;0.57;;;;;;;;;;4991859;28;20044;-92
2022/09/27 04:20:41;;;;;;;8.40;1.33;;;;;;;;;;4992089;28;20697;-92
2022/09/27 04:23:08;;;;;;;3.45;0.52;;;;;;;;;;4991563;28;20496;-92
2022/09/27 04:25:35;;;;;;;2.28;0.68;;;;;;;;;;4985734;28;20037;-93
2022/09/27 04:28:01;;;;;;;11.20;1.58;;;;;;;;;;5018269;28;20216;-94
2022/09/27 04:30:30;;;;;;;2.55;0.65;;;;;;;;;;5000723;28;20048;-92
2022/09/27 04:32:56;;;;;;;9.75;0.80;;;;;;;;;;4981597;28;20040;-93
2022/09/27 04:38:07;;;;;;;5.45;1.10;;;;;;;;;;5001943;28;20071;-95
2022/09/27 04:40:34;;;;;;;12.60;1.83;;;;;;;;;;4997265;28;20026;-95
2022/09/27 04:43:00;;;;;;;7.45;1.10;;;;;;;;;;4999190;28;20028;-94
2022/09/27 04:45:26;;;;;;;5.55;0.80;;;;;;;;;;4984389;28;20037;-93
2022/09/27 04:47:52;;;;;;;7.03;0.90;;;;;;;;;;4978756;28;20048;-93
2022/09/27 04:50:21;;;;;;;7.05;1.75;;;;;;;;;;4997485;28;20057;-93
2022/09/27 04:52:54;;;;;;;14.35;1.17;;;;;;;;;;4996980;28;20501;-94
2022/09/27 04:55:20;;;;;;;8.30;0.98;;;;;;;;;;4995219;28;20071;-93
2022/09/27 04:57:47;;;;;;;7.63;0.75;;;;;;;;;;4997938;28;20037;-94
2022/09/27 05:00:14;;;;;;;11.18;1.38;;;;;;;;;;4987529;28;20087;-94
2022/09/27 05:02:40;;;;;;;9.02;1.35;;;;;;;;;;4998899;28;20576;-93
2022/09/27 05:05:06;;;;;;;8.82;1.27;;;;;;;;;;4987008;28;20128;-94
2022/09/27 05:07:33;;;;;;;9.52;1.05;;;;;;;;;;5001623;28;20481;-93
2022/09/27 05:09:59;;;;;;;5.00;0.80;;;;;;;;;;4994829;28;20120;-94
2022/09/27 05:12:25;;;;;;;5.28;0.98;;;;;;;;;;4984411;28;20040;-94
2022/09/27 05:14:52;;;;;;;13.07;1.35;;;;;;;;;;4986394;28;20115;-94
2022/09/27 05:17:19;;;;;;;6.82;1.17;;;;;;;;;;4998781;28;20036;-95
2022/09/27 05:19:45;;;;;;;7.45;1.15;;;;;;;;;;5000164;28;20086;-92
2022/09/27 05:22:11;;;;;;;12.93;0.90;;;;;;;;;;4987042;28;20473;-92
2022/09/27 05:24:38;;;;;;;8.35;1.30;;;;;;;;;;5002446;28;20035;-92
2022/09/27 05:27:07;;;;;;;7.10;1.15;;;;;;;;;;4985768;28;20038;-92
2022/09/27 05:29:34;;;;;;;13.38;1.10;;;;;;;;;;5002878;28;20261;-92
2022/09/27 05:32:00;;;;;;;8.40;0.90;;;;;;;;;;5001546;28;20497;-92
2022/09/27 05:34:26;;;;;;;4.22;0.77;;;;;;;;;;4985559;28;20060;-94
2022/09/27 05:36:52;;;;;;;7.88;1.25;;;;;;;;;;4989138;28;20022;-94
2022/09/27 05:39:18;;;;;;;5.63;0.98;;;;;;;;;;4982246;28;20060;-95
2022/09/27 05:41:46;;;;;;;8.43;1.20;;;;;;;;;;5003578;28;20029;-94
2022/09/27 05:44:12;;;;;;;7.40;0.73;;;;;;;;;;4998243;28;20057;-92
2022/09/27 05:46:39;;;;;;;13.13;1.83;;;;;;;;;;4984202;28;20409;-93
2022/09/27 05:49:05;;;;;;;6.50;0.80;;;;;;;;;;4998678;28;20579;-94
2022/09/27 05:51:31;;;;;;;13.57;1.67;;;;;;;;;;4984973;28;20152;-93
2022/09/27 05:53:58;;;;;;;7.40;1.40;;;;;;;;;;4997092;28;20034;-93
2022/09/27 05:56:24;;;;;;;5.03;1.17;;;;;;;;;;4986684;28;20140;-93
2022/09/27 05:58:50;;;;;;;10.55;1.25;;;;;;;;;;4993078;28;20485;-91
2022/09/27 06:01:17;;;;;;;9.43;1.15;;;;;;;;;;5001337;28;20093;-91
2022/09/27 06:03:43;;;;;;;15.43;2.08;;;;;;;;;;5001351;28;20537;-92
2022/09/27 06:06:09;;;;;;;13.65;1.52;;;;;;;;;;4983465;28;20477;-93
2022/09/27 06:08:39;;;;;;;11.77;1.42;;;;;;;;;;5004131;28;20034;-92
2022/09/27 06:11:07;;;;;;;13.25;1.20;;;;;;;;;;5006949;28;20057;-94
2022/09/27 06:13:35;;;;;;;5.13;1.55;;;;;;;;;;5000625;28;20018;-95
2022/09/27 06:16:01;;;;;;;10.82;1.35;;;;;;;;;;4987673;28;20497;-93
2022/09/27 06:18:27;;;;;;;7.40;1.75;;;;;;;;;;4997143;28;20037;-92
2022/09/27 06:20:53;;;;;;;8.50;1.48;;;;;;;;;;4985688;28;20029;-93
2022/09/27 06:23:21;;;;;;;12.25;1.60;;;;;;;;;;5002609;28;20491;-93
2022/09/27 06:25:47;;;;;;;16.48;1.58;;;;;;;;;;4996208;28;20094;-92
2022/09/27 06:28:13;;;;;;;14.52;1.63;;;;;;;;;;4997064;28;20032;-94
2022/09/27 06:30:43;;;;;;;13.43;1.98;;;;;;;;;;4994845;28;20040;-94
2022/09/27 06:33:14;;;;;;;11.60;2.08;;;;;;;;;;4994489;28;20393;-94
2022/09/27 06:35:44;;;;;;;9.45;2.15;;;;;;;;;;4997210;28;20032;-93
2022/09/27 06:38:14;;;;;;;9.80;2.50;;;;;;;;;;4998068;28;20034;-93
2022/09/27 06:40:44;;;;;;;17.13;3.08;;;;;;;;;;4994936;28;20036;-95
2022/09/27 06:43:11;;;;;;;17.63;3.22;;;;;;;;;;4997807;28;20042;-90
2022/09/27 06:45:38;;;;;;;12.02;1.80;;;;;;;;;;4994906;28;20057;-92
2022/09/27 06:48:05;;;;;;;9.02;1.77;;;;;;;;;;4996439;28;20465;-91
2022/09/27 06:50:32;;;;;;;8.07;1.60;;;;;;;;;;4980736;28;20034;-92
2022/09/27 06:52:58;;;;;;;8.52;1.90;;;;;;;;;;4994989;28;20374;-92
2022/09/27 06:55:24;;;;;;;15.30;2.70;;;;;;;;;;4993333;28;20497;-93
2022/09/27 07:00:42;;;;;;;7.60;2.20;;;;;;;;;;5001488;28;20711;-93
2022/09/27 07:03:12;;;;;;;16.30;2.47;;;;;;;;;;4984687;28;20037;-93
2022/09/27 07:05:39;;;;;;;10.07;1.92;;;;;;;;;;4987379;28;20416;-92
2022/09/27 07:08:05;;;;;;;19.33;1.88;;;;;;;;;;4986371;28;20028;-92
2022/09/27 07:10:33;;;;;;;7.47;1.70;;;;;;;;;;4971375;28;20034;-93
2022/09/27 07:13:09;;;;;;;6.75;1.30;;;;;;;;;;5009318;28;20097;-93
2022/09/27 07:15:36;;;;;;;12.07;2.17;;;;;;;;;;4978965;28;20029;-91
2022/09/27 07:18:03;;;;;;;13.45;2.05;;;;;;;;;;4965725;28;20618;-92
2022/09/27 07:20:29;;;;;;;10.77;1.30;;;;;;;;;;4981419;28;20033;-92
2022/09/27 07:22:55;;;;;;;9.77;1.38;;;;;;;;;;4961221;28;20255;-92
2022/09/27 07:25:22;;;;;;;6.25;1.48;;;;;;;;;;4976965;28;20042;-93
2022/09/27 07:27:48;;;;;;;9.98;1.58;;;;;;;;;;4984840;28;20113;-91
2022/09/27 07:30:15;;;;;;;6.90;1.38;;;;;;;;;;4985263;28;20074;-91
2022/09/27 07:32:42;;;;;;;6.88;1.48;;;;;;;;;;4976612;28;20030;-92
2022/09/27 07:35:08;;;;;;;12.05;1.98;;;;;;;;;;4977312;28;20061;-93
2022/09/27 07:37:36;;;;;;;7.53;1.90;;;;;;;;;;4978975;28;20050;-93
2022/09/27 07:40:03;;;;;;;6.43;1.80;;;;;;;;;;4975720;28;20030;-92
2022/09/27 07:42:29;;;;;;;4.00;1.75;;;;;;;;;;4982621;28;20041;-93
2022/09/27 07:44:56;;;;;;;7.93;2.00;;;;;;;;;;4994429;28;20598;-93
2022/09/27 07:47:29;;;;;;;10.77;1.80;;;;;;;;;;4975091;28;20044;-93
2022/09/27 07:49:55;;;;;;;16.55;2.60;;;;;;;;;;4975494;28;20487;-92
2022/09/27 07:52:22;;;;;;;13.25;1.80;;;;;;;;;;4977620;28;20053;-92
2022/09/27 07:54:48;;;;;;;5.40;1.48;;;;;;;;;;4977835;28;20065;-91
2022/09/27 07:57:15;;;;;;;4.70;1.30;;;;;;;;;;4971712;28;20046;-94
2022/09/27 07:59:41;;;;;;;9.13;1.00;;;;;;;;;;4974394;28;20242;-93
2022/09/27 08:02:14;;;;;;;4.55;0.90;;;;;;;;;;4977177;28;20485;-93
2022/09/27 08:04:41;;;;;;;8.63;1.20;;;;;;;;;;4974838;28;20030;-94
2022/09/27 08:07:07;;;;;;;8.15;1.02;;;;;;;;;;4996894;28;20034;-95
2022/09/27 08:09:33;;;;;;;2.92;1.10;;;;;;;;;;4986612;28;20053;-92
2022/09/27 08:11:59;;;;;;;9.23;0.88;;;;;;;;;;4970308;28;20037;-94
2022/09/27 08:14:25;;;;;;;13.55;1.02;;;;;;;;;;4962082;28;20046;-93
2022/09/27 08:16:51;;;;;;;1.75;0.68;;;;;;;;;;4962582;28;20027;-94
2022/09/27 08:19:18;;;;;;;8.90;1.17;;;;;;;;;;4973056;28;20197;-92
2022/09/27 08:21:44;;;;;;;5.53;0.80;;;;;;;;;;4959489;28;20039;-91
2022/09/27 08:24:11;;;;;;;11.60;1.02;;;;;;;;;;4959369;28;20038;-92
2022/09/27 08:26:37;;;;;;;3.35;1.00;;;;;;;;;;4962997;28;20045;-92
2022/09/27 08:29:03;;;;;;;2.47;0.70;;;;;;;;;;4977617;28;20046;-92
2022/09/27 08:31:29;;;;;;;6.97;1.10;;;;;;;;;;4966797;28;20038;-92
2022/09/27 08:33:56;;;;;;;4.10;1.45;;;;;;;;;;4976662;28;20084;-91
2022/09/27 08:36:23;;;;;;;6.65;2.40;;;;;;;;;;4977948;28;20038;-91
2022/09/27 08:38:56;;;;;;;10.75;2.42;;;;;;;;;;4983400;28;20041;-91
2022/09/27 08:41:32;;;;;;;5.57;2.50;;;;;;;;;;4980249;28;22485;-91
2022/09/27 08:43:59;;;;;;;8.73;2.85;;;;;;;;;;4973959;28;20039;-91
2022/09/27 08:46:37;;;;;;;8.70;2.70;;;;;;;;;;4979992;28;20030;-91
2022/09/27 08:49:12;;;;;;;8.48;1.95;;;;;;;;;;4984964;28;20394;-91
2022/09/27 08:51:39;;;;;;;11.43;1.65;;;;;;;;;;4981486;28;20038;-90
2022/09/27 08:54:07;;;;;;;5.95;2.13;;;;;;;;;;4981003;28;20034;-91
2022/09/27 08:56:34;;;;;;;5.72;0.90;;;;;;;;;;4999618;28;20457;-91
2022/09/27 08:59:11;;;;;;;4.28;0.75;;;;;;;;;;4997669;28;20101;-92
2022/09/27 09:01:38;;;;;;;4.70;1.20;;;;;;;;;;4998359;28;20026;-91
2022/09/27 09:04:11;;;;;;;10.82;1.25;;;;;;;;;;4979886;28;20038;-92
2022/09/27 09:06:37;;;;;;;5.07;1.08;;;;;;;;;;4988201;28;20026;-90
2022/09/27 09:09:22;;;;;;;5.25;1.40;;;;;;;;;;4999442;28;20052;-91
2022/09/27 09:14:54;;;;;;;6.90;1.67;;;;;;;;;;5015885;28;20036;-91
2022/09/27 09:17:20;;;;;;;4.57;1.35;;;;;;;;;;4990406;28;20030;-90
2022/09/27 09:19:53;;;;;;;7.25;1.20;;;;;;;;;;4997558;28;20152;-91
2022/09/27 09:22:19;;;;;;;6.30;1.35;;;;;;;;;;5000002;28;20068;-91
2022/09/27 09:24:45;;;;;;;8.27;1.10;;;;;;;;;;4996835;28;20144;-91
2022/09/27 09:27:11;;;;;;;10.05;1.20;;;;;;;;;;4998434;28;20037;-91
2022/09/27 09:29:43;;;;;;;8.00;1.38;;;;;;;;;;4997241;28;20177;-90
2022/09/27 09:32:19;;;;;;;5.28;1.08;;;;;;;;;;5013862;28;20029;-89
2022/09/27 09:34:58;;;;;;;6.07;1.50;;;;;;;;;;5000456;28;20037;-90
2022/09/27 09:37:44;;;;;;;8.38;1.25;;;;;;;;;;5001355;28;20445;-90
2022/09/27 09:40:19;;;;;;;4.30;0.93;;;;;;;;;;4973959;28;20088;-90
2022/09/27 09:42:52;;;;;;;6.47;1.30;;;;;;;;;;4998921;28;20132;-90
2022/09/27 09:45:32;;;;;;;6.05;0.90;;;;;;;;;;4999254;28;20120;-89
2022/09/27 09:48:00;;;;;;;7.32;0.80;;;;;;;;;;4995322;28;20033;-90
2022/09/27 09:50:27;;;;;;;10.52;1.27;;;;;;;;;;4993906;28;20500;-89
2022/09/27 09:52:55;;;;;;;11.40;1.35;;;;;;;;;;4994251;28;20050;-90
2022/09/27 09:55:35;;;;;;;5.85;0.80;;;;;;;;;;4992924;28;20033;-91
2022/09/27 09:58:07;;;;;;;11.38;1.10;;;;;;;;;;4990972;28;20425;-90
2022/09/27 10:00:33;;;;;;;8.52;1.13;;;;;;;;;;4997979;28;20489;-91
2022/09/27 10:03:00;;;;;;;5.68;0.60;;;;;;;;;;4987605;28;20071;-91
2022/09/27 10:05:27;;;;;;;4.53;0.77;;;;;;;;;;5013585;28;20030;-91
2022/09/27 10:07:55;;;;;;;6.15;0.90;;;;;;;;;;4997721;28;20466;-91
2022/09/27 10:10:21;;;;;;;6.82;0.80;;;;;;;;;;4989837;28;20029;-90
2022/09/27 10:12:47;;;;;;;5.00;0.75;;;;;;;;;;5009286;28;20034;-90
2022/09/27 10:15:16;;;;;;;2.75;1.00;;;;;;;;;;5004749;28;20029;-90
2022/09/27 10:17:44;;;;;;;5.30;0.68;;;;;;;;;;4995211;28;20121;-91
2022/09/27 10:20:20;;;;;;;3.50;0.88;;;;;;;;;;4999339;28;20039;-90
2022/09/27 10:22:48;;;;;;;3.47;0.55;;;;;;;;;;5000089;28;20040;-91
2022/09/27 10:25:16;;;;;;;1.40;0.60;;;;;;;;;;4991976;28;20033;-92
2022/09/27 10:27:47;;;;;;;9.45;0.80;;;;;;;;;;4994262;28;20368;-91
2022/09/27 10:30:31;;;;;;;3.05;0.80;;;;;;;;;;4997792;28;20327;-92
2022/09/27 10:33:02;;;;;;;2.63;0.73;;;;;;;;;;5005564;28;20044;-92
2022/09/27 10:35:28;;;;;;;5.22;0.70;;;;;;;;;;4997747;28;20557;-92
2022/09/27 10:38:24;;;;;;;3.47;0.70;;;;;;;;;;4996742;28;20017;-92
2022/09/27 10:40:51;;;;;;;3.85;0.60;;;;;;;;;;4982735;28;20036;-92
2022/09/27 10:43:25;;;;;;;5.28;0.80;;;;;;;;;;4991078;28;20089;-93
2022/09/27 10:45:59;;;;;;;1.77;0.70;;;;;;;;;;4986485;28;20044;-92
2022/09/27 10:48:25;;;;;;;2.42;0.95;;;;;;;;;;4997204;28;20115;-90
2022/09/27 10:50:58;;;;;;;14.48;1.23;;;;;;;;;;4995889;28;20057;-92
2022/09/27 10:53:24;;;;;;;2.92;0.47;;;;;;;;;;4996230;28;20167;-92
2022/09/27 10:56:05;;;;;;;1.85;0.77;;;;;;;;;;5018664;28;20057;-93
2022/09/27 10:58:38;;;;;;;3.25;0.70;;;;;;;;;;5014493;28;20454;-92
2022/09/27 11:01:04;;;;;;;6.30;1.13;;;;;;;;;;4984832;28;20123;-91
2022/09/27 11:03:31;;;;;;;5.45;0.50;;;;;;;;;;4996761;28;20036;-89
2022/09/27 11:05:58;;;;;;;2.25;0.43;;;;;;;;;;4990452;28;20038;-90
2022/09/27 11:08:28;;;;;;;4.05;0.60;;;;;;;;;;4972676;28;20084;-91
2022/09/27 11:11:05;;;;;;;3.60;0.50;;;;;;;;;;5004001;28;20529;-92
2022/09/27 11:13:33;;;;;;;2.92;0.35;;;;;;;;;;4996102;28;20030;-91
2022/09/27 11:16:11;;;;;;;4.72;0.47;;;;;;;;;;4997036;28;20504;-91
2022/09/27 11:18:56;;;;;;;3.92;0.90;;;;;;;;;;5000297;28;20034;-92
2022/09/27 11:21:23;;;;;;;1.55;1.30;;;;;;;;;;4997702;28;20067;-92
2022/09/27 11:24:02;;;;;;;4.10;1.75;;;;;;;;;;4997105;28;20549;-93
2022/09/27 11:26:32;;;;;;;7.85;1.52;;;;;;;;;;5000975;28;20037;-92
2022/09/27 11:29:22;;;;;;;2.70;1.02;;;;;;;;;;4999744;28;20452;-93
2022/09/27 11:32:05;;;;;;;3.45;1.50;;;;;;;;;;4997580;28;20085;-92
2022/09/27 11:34:40;;;;;;;4.88;1.42;;;;;;;;;;4997218;28;20026;-92
2022/09/27 11:37:18;;;;;;;4.10;1.90;;;;;;;;;;5000924;28;20057;-92
2022/09/27 11:39:51;;;;;;;5.88;1.58;;;;;;;;;;4998686;28;20292;-93
2022/09/27 11:42:28;;;;;;;3.20;1.25;;;;;;;;;;5018293;28;20519;-92
2022/09/27 11:45:00;;;;;;;5.43;1.20;;;;;;;;;;4999136;28;20069;-91
2022/09/27 11:47:29;;;;;;;8.13;0.80;;;;;;;;;;5001675;28;20350;-93
2022/09/27 11:50:06;;;;;;;1.48;0.57;;;;;;;;;;4997472;28;20085;-93
2022/09/27 11:52:50;;;;;;;2.95;0.75;;;;;;;;;;4997372;28;20635;-92
2022/09/27 11:55:36;;;;;;;2.95;1.00;;;;;;;;;;5000900;28;20242;-94
2022/09/27 11:58:12;;;;;;;2.13;1.10;;;;;;;;;;4994863;28;20405;-93
2022/09/27 12:00:59;;;;;;;3.33;0.80;;;;;;;;;;4997791;28;20066;-94
2022/09/27 12:03:31;;;;;;;3.17;0.82;;;;;;;;;;4997471;28;20037;-92
2022/09/27 12:06:03;;;;;;;0.03;0.00;;;;;;;;;;5000019;28;20017;-92
2022/09/27 12:08:57;;;;;;;4.75;0.20;;;;;;;;;;4993221;28;21123;-93
2022/09/27 12:11:29;;;;;;;0.10;0.10;;;;;;;;;;4964456;28;20038;-93
2022/09/27 12:13:55;;;;;;;7.28;0.60;;;;;;;;;;4996189;28;20037;-93
2022/09/27 12:16:22;;;;;;;0.22;0.15;;;;;;;;;;4996067;28;20040;-92
2022/09/27 12:18:49;;;;;;;0.75;0.30;;;;;;;;;;4994381;28;20037;-93
2022/09/27 12:21:15;;;;;;;0.75;0.30;;;;;;;;;;4992143;28;20044;-93
2022/09/27 12:23:43;;;;;;;2.45;0.40;;;;;;;;;;5001244;28;20049;-94
2022/09/27 12:26:24;;;;;;;0.30;0.20;;;;;;;;;;5000313;28;20517;-93
2022/09/27 12:28:54;;;;;;;2.35;0.50;;;;;;;;;;5000046;28;20579;-93
2022/09/27 12:31:39;;;;;;;1.90;0.47;;;;;;;;;;4997096;28;20029;-93
2022/09/27 12:34:14;;;;;;;3.33;0.57;;;;;;;;;;4999852;28;20025;-93
2022/09/27 12:36:44;;;;;;;1.73;0.37;;;;;;;;;;5010420;28;20485;-92
2022/09/27 12:39:25;;;;;;;4.32;0.32;;;;;;;;;;4998204;28;20108;-94
2022/09/27 12:42:00;;;;;;;4.05;0.65;;;;;;;;;;4995340;28;20029;-94
2022/09/27 12:44:26;;;;;;;1.88;0.35;;;;;;;;;;4995325;28;20515;-94
2022/09/27 12:46:53;;;;;;;3.17;0.60;;;;;;;;;;4982382;28;20371;-92
2022/09/27 12:49:37;;;;;;;10.85;1.27;;;;;;;;;;4991922;28;20034;-93
2022/09/27 12:52:07;;;;;;;2.15;0.68;;;;;;;;;;4996388;28;20057;-93
2022/09/27 12:54:36;;;;;;;1.10;0.60;;;;;;;;;;4990720;28;20097;-93
2022/09/27 12:57:12;;;;;;;3.53;0.40;;;;;;;;;;4999215;28;20053;-93
2022/09/27 12:59:39;;;;;;;1.48;0.63;;;;;;;;;;4997346;28;20325;-92
2022/09/27 13:02:11;;;;;;;2.33;0.32;;;;;;;;;;5000417;28;20038;-92
2022/09/27 13:04:57;;;;;;;0.70;0.68;;;;;;;;;;4994929;28;20136;-93
2022/09/27 13:07:35;;;;;;;5.07;0.70;;;;;;;;;;4999251;28;20128;-92
2022/09/27 13:10:20;;;;;;;10.93;1.02;;;;;;;;;;4993482;28;20040;-94
2022/09/27 13:12:48;;;;;;;2.50;0.50;;;;;;;;;;4997020;28;20064;-93
2022/09/27 13:15:18;;;;;;;5.60;0.77;;;;;;;;;;4996234;28;20034;-94
2022/09/27 13:17:44;;;;;;;4.95;0.70;;;;;;;;;;4991982;28;20488;-92
2022/09/27 13:20:29;;;;;;;4.13;0.85;;;;;;;;;;4995445;28;20033;-93
2022/09/27 13:22:56;;;;;;;0.60;0.22;;;;;;;;;;4998278;28;20032;-94
2022/09/27 13:25:42;;;;;;;0.20;0.17;;;;;;;;;;4985233;28;20489;-93
2022/09/27 13:28:26;;;;;;;0.60;0.38;;;;;;;;;;4994556;28;20025;-93
2022/09/27 13:30:53;;;;;;;0.73;0.30;;;;;;;;;;5002255;28;20152;-93
2022/09/27 13:33:20;;;;;;;1.00;0.20;;;;;;;;;;4987446;28;20040;-93
2022/09/27 13:36:05;;;;;;;3.42;1.05;;;;;;;;;;4994549;28;20509;-93
2022/09/27 13:38:31;;;;;;;3.90;0.32;;;;;;;;;;4998349;28;20033;-92
2022/09/27 13:41:13;;;;;;;2.60;0.45;;;;;;;;;;4990508;28;20029;-93
2022/09/27 13:43:52;;;;;;;0.75;0.40;;;;;;;;;;4997197;28;20080;-93
2022/09/27 13:46:20;;;;;;;0.22;0.10;;;;;;;;;;4994803;28;20041;-93
2022/09/27 13:48:49;;;;;;;1.80;0.30;;;;;;;;;;4995953;28;20138;-92
2022/09/27 13:51:18;;;;;;;0.68;0.40;;;;;;;;;;4995192;28;20037;-94
2022/09/27 13:53:55;;;;;;;2.28;0.43;;;;;;;;;;4998387;28;20053;-93
2022/09/27 13:56:39;;;;;;;0.90;0.40;;;;;;;;;;4999200;28;20051;-94
2022/09/27 13:59:09;;;;;;;3.13;0.60;;;;;;;;;;4986280;28;20129;-94
2022/09/27 14:01:39;;;;;;;4.68;0.50;;;;;;;;;;4994975;28;20042;-93
2022/09/27 14:04:16;;;;;;;5.47;0.77;;;;;;;;;;4982946;28;20141;-93
2022/09/27 14:06:49;;;;;;;1.77;0.85;;;;;;;;;;5006184;28;20450;-92
2022/09/27 14:09:42;;;;;;;7.60;1.20;;;;;;;;;;4983801;28;20093;-93
2022/09/27 14:12:11;;;;;;;12.77;1.67;;;;;;;;;;4980868;28;20070;-93
2022/09/27 14:14:37;;;;;;;3.35;1.40;;;;;;;;;;4985633;28;20033;-92
2022/09/27 14:17:06;;;;;;;2.55;1.30;;;;;;;;;;4967326;28;20430;-94
2022/09/27 14:19:32;;;;;;;2.95;1.65;;;;;;;;;;4984194;28;20457;-93
2022/09/27 14:21:58;;;;;;;10.02;2.38;;;;;;;;;;4995889;28;20061;-92
2022/09/27 14:24:27;;;;;;;3.00;1.70;;;;;;;;;;4965123;28;20038;-90
2022/09/27 14:27:29;;;;;;;3.00;1.40;;;;;;;;;;4982279;28;20033;-92
2022/09/27 14:29:56;;;;;;;1.65;0.88;;;;;;;;;;4907244;29;20124;-92
2022/09/27 14:32:24;;;;;;;4.20;1.67;;;;;;;;;;4966623;28;20405;-91
2022/09/27 14:35:04;;;;;;;3.00;0.75;;;;;;;;;;4981579;28;20105;-90
2022/09/27 14:37:30;;;;;;;3.05;1.17;;;;;;;;;;4974199;28;20125;-93
2022/09/27 14:39:58;;;;;;;4.13;1.40;;;;;;;;;;4979942;28;20064;-92
2022/09/27 14:42:25;;;;;;;3.65;0.47;;;;;;;;;;4979668;28;20034;-90
2022/09/27 14:44:52;;;;;;;0.82;0.50;;;;;;;;;;4982800;28;20045;-90
2022/09/27 14:47:23;;;;;;;2.55;1.00;;;;;;;;;;4967295;28;20042;-91
2022/09/27 14:50:00;;;;;;;2.63;0.68;;;;;;;;;;4980415;28;20035;-92
2022/09/27 14:52:31;;;;;;;9.77;0.80;;;;;;;;;;4982512;28;20039;-91
2022/09/27 14:55:07;;;;;;;5.95;1.30;;;;;;;;;;4983343;28;20152;-90
2022/09/27 14:57:34;;;;;;;10.45;4.03;;;;;;;;;;4990723;28;20037;-92
2022/09/27 15:00:11;;;;;;;4.35;2.80;;;;;;;;;;4983243;28;20679;-92
2022/09/27 15:02:40;;;;;;;6.05;2.60;;;;;;;;;;4998801;28;20584;-93
2022/09/27 15:05:13;;;;;;;2.42;1.60;;;;;;;;;;4996608;28;20090;-92
2022/09/27 15:07:39;;;;;;;7.00;2.70;;;;;;;;;;4997822;28;20029;-91
2022/09/27 15:10:05;;;;;;;6.30;2.65;;;;;;;;;;4987886;28;20742;-91